sensor_id;sensor_type;location;lat;lon;timestamp;P1;durP1;ratioP1;P2;durP2;ratioP2
15261;SDS011;7733;51.554;13.590;2023-05-10T00:02:06;2.80;;;2.70;;
15261;SDS011;7733;51.554;13.590;2023-05-10T00:04:32;3.07;;;2.83;;
15261;SDS011;7733;51.554;13.590;2023-05-10T00:06:58;2.83;;;2.63;;
15261;SDS011;7733;51.554;13.590;2023-05-10T00:09:24;2.80;;;2.70;;
15261;SDS011;7733;51.554;13.590;2023-05-10T00:11:50;2.90;;;2.67;;
15261;SDS011;7733;51.554;13.590;2023-05-10T00:14:16;3.30;;;2.93;;
15261;SDS011;7733;51.554;13.590;2023-05-10T00:16:42;3.27;;;3.07;;
15261;SDS011;7733;51.554;13.590;2023-05-10T00:19:08;5.63;;;3.10;;
15261;SDS011;7733;51.554;13.590;2023-05-10T00:21:33;3.43;;;2.87;;
15261;SDS011;7733;51.554;13.590;2023-05-10T00:23:59;3.03;;;2.80;;
15261;SDS011;7733;51.554;13.590;2023-05-10T00:26:25;2.80;;;2.57;;
15261;SDS011;7733;51.554;13.590;2023-05-10T00:28:51;3.00;;;2.80;;
15261;SDS011;7733;51.554;13.590;2023-05-10T00:31:16;4.03;;;2.83;;
15261;SDS011;7733;51.554;13.590;2023-05-10T00:33:42;3.30;;;3.10;;
15261;SDS011;7733;51.554;13.590;2023-05-10T00:36:08;2.90;;;2.70;;
15261;SDS011;7733;51.554;13.590;2023-05-10T00:38:34;2.90;;;2.70;;
15261;SDS011;7733;51.554;13.590;2023-05-10T00:41:00;2.80;;;2.70;;
15261;SDS011;7733;51.554;13.590;2023-05-10T00:43:25;2.70;;;2.60;;
15261;SDS011;7733;51.554;13.590;2023-05-10T00:45:51;3.30;;;3.00;;
15261;SDS011;7733;51.554;13.590;2023-05-10T00:48:18;7.37;;;2.97;;
15261;SDS011;7733;51.554;13.590;2023-05-10T00:50:44;3.30;;;3.00;;
15261;SDS011;7733;51.554;13.590;2023-05-10T00:53:10;3.07;;;2.77;;
15261;SDS011;7733;51.554;13.590;2023-05-10T00:55:37;3.13;;;2.80;;
15261;SDS011;7733;51.554;13.590;2023-05-10T00:58:03;3.07;;;2.70;;
15261;SDS011;7733;51.554;13.590;2023-05-10T01:00:29;3.20;;;3.00;;
15261;SDS011;7733;51.554;13.590;2023-05-10T01:02:58;2.93;;;2.70;;
15261;SDS011;7733;51.554;13.590;2023-05-10T01:05:24;2.80;;;2.70;;
15261;SDS011;7733;51.554;13.590;2023-05-10T01:07:52;3.10;;;2.80;;
15261;SDS011;7733;51.554;13.590;2023-05-10T01:10:17;2.80;;;2.70;;
15261;SDS011;7733;51.554;13.590;2023-05-10T01:12:44;2.60;;;2.50;;
15261;SDS011;7733;51.554;13.590;2023-05-10T01:15:12;4.33;;;2.80;;
15261;SDS011;7733;51.554;13.590;2023-05-10T01:17:40;2.60;;;2.50;;
15261;SDS011;7733;51.554;13.590;2023-05-10T01:20:09;3.17;;;2.60;;
15261;SDS011;7733;51.554;13.590;2023-05-10T01:28:37;2.97;;;2.57;;
15261;SDS011;7733;51.554;13.590;2023-05-10T01:31:31;3.03;;;2.80;;
15261;SDS011;7733;51.554;13.590;2023-05-10T01:36:51;4.67;;;2.60;;
15261;SDS011;7733;51.554;13.590;2023-05-10T01:39:44;4.00;;;2.30;;
15261;SDS011;7733;51.554;13.590;2023-05-10T01:42:20;2.77;;;2.67;;
15261;SDS011;7733;51.554;13.590;2023-05-10T01:44:56;2.33;;;2.23;;
15261;SDS011;7733;51.554;13.590;2023-05-10T01:50:03;2.70;;;2.50;;
15261;SDS011;7733;51.554;13.590;2023-05-10T01:52:38;2.70;;;2.50;;
15261;SDS011;7733;51.554;13.590;2023-05-10T01:55:11;4.87;;;2.60;;
15261;SDS011;7733;51.554;13.590;2023-05-10T01:57:42;5.30;;;2.67;;
15261;SDS011;7733;51.554;13.590;2023-05-10T02:00:13;2.27;;;2.17;;
15261;SDS011;7733;51.554;13.590;2023-05-10T02:02:42;2.67;;;2.57;;
15261;SDS011;7733;51.554;13.590;2023-05-10T02:05:13;2.47;;;2.33;;
15261;SDS011;7733;51.554;13.590;2023-05-10T02:07:41;2.80;;;2.60;;
15261;SDS011;7733;51.554;13.590;2023-05-10T02:10:09;2.80;;;2.60;;
15261;SDS011;7733;51.554;13.590;2023-05-10T02:12:36;3.20;;;2.47;;
15261;SDS011;7733;51.554;13.590;2023-05-10T02:15:10;2.37;;;2.17;;
15261;SDS011;7733;51.554;13.590;2023-05-10T02:17:40;2.47;;;2.37;;
15261;SDS011;7733;51.554;13.590;2023-05-10T02:20:08;3.13;;;2.77;;
15261;SDS011;7733;51.554;13.590;2023-05-10T02:22:36;3.60;;;3.27;;
15261;SDS011;7733;51.554;13.590;2023-05-10T02:25:05;4.20;;;3.90;;
15261;SDS011;7733;51.554;13.590;2023-05-10T02:27:35;3.30;;;3.00;;
15261;SDS011;7733;51.554;13.590;2023-05-10T02:30:03;5.37;;;4.97;;
15261;SDS011;7733;51.554;13.590;2023-05-10T02:32:31;5.03;;;4.63;;
15261;SDS011;7733;51.554;13.590;2023-05-10T02:35:00;2.70;;;2.60;;
15261;SDS011;7733;51.554;13.590;2023-05-10T02:37:28;2.47;;;2.27;;
15261;SDS011;7733;51.554;13.590;2023-05-10T02:39:55;2.73;;;2.63;;
15261;SDS011;7733;51.554;13.590;2023-05-10T02:42:27;2.67;;;2.57;;
15261;SDS011;7733;51.554;13.590;2023-05-10T02:44:56;3.97;;;3.57;;
15261;SDS011;7733;51.554;13.590;2023-05-10T02:47:27;3.63;;;3.10;;
15261;SDS011;7733;51.554;13.590;2023-05-10T02:49:54;3.00;;;2.90;;
15261;SDS011;7733;51.554;13.590;2023-05-10T02:52:24;2.90;;;2.70;;
15261;SDS011;7733;51.554;13.590;2023-05-10T02:55:02;3.10;;;2.90;;
15261;SDS011;7733;51.554;13.590;2023-05-10T02:57:34;3.00;;;2.70;;
15261;SDS011;7733;51.554;13.590;2023-05-10T03:00:06;2.93;;;2.70;;
15261;SDS011;7733;51.554;13.590;2023-05-10T03:02:32;3.13;;;2.93;;
15261;SDS011;7733;51.554;13.590;2023-05-10T03:04:58;2.17;;;2.17;;
15261;SDS011;7733;51.554;13.590;2023-05-10T03:07:23;2.70;;;2.50;;
15261;SDS011;7733;51.554;13.590;2023-05-10T03:09:49;2.30;;;2.13;;
15261;SDS011;7733;51.554;13.590;2023-05-10T03:12:28;2.53;;;2.40;;
15261;SDS011;7733;51.554;13.590;2023-05-10T03:18:54;3.70;;;2.70;;
15261;SDS011;7733;51.554;13.590;2023-05-10T03:21:31;2.77;;;2.57;;
15261;SDS011;7733;51.554;13.590;2023-05-10T03:26:30;2.53;;;2.43;;
15261;SDS011;7733;51.554;13.590;2023-05-10T03:28:57;2.40;;;2.27;;
15261;SDS011;7733;51.554;13.590;2023-05-10T03:31:24;2.63;;;2.43;;
15261;SDS011;7733;51.554;13.590;2023-05-10T03:33:51;2.73;;;2.57;;
15261;SDS011;7733;51.554;13.590;2023-05-10T03:36:17;2.80;;;2.70;;
15261;SDS011;7733;51.554;13.590;2023-05-10T03:38:44;2.30;;;2.13;;
15261;SDS011;7733;51.554;13.590;2023-05-10T03:41:10;2.70;;;2.20;;
15261;SDS011;7733;51.554;13.590;2023-05-10T03:43:36;2.33;;;2.23;;
15261;SDS011;7733;51.554;13.590;2023-05-10T03:46:05;2.80;;;2.60;;
15261;SDS011;7733;51.554;13.590;2023-05-10T03:48:33;5.40;;;2.93;;
15261;SDS011;7733;51.554;13.590;2023-05-10T03:50:59;3.03;;;2.77;;
15261;SDS011;7733;51.554;13.590;2023-05-10T03:53:25;2.37;;;2.27;;
15261;SDS011;7733;51.554;13.590;2023-05-10T03:55:51;2.70;;;2.40;;
15261;SDS011;7733;51.554;13.590;2023-05-10T03:58:17;2.37;;;2.17;;
15261;SDS011;7733;51.554;13.590;2023-05-10T04:00:43;2.50;;;2.40;;
15261;SDS011;7733;51.554;13.590;2023-05-10T04:03:10;3.10;;;2.87;;
15261;SDS011;7733;51.554;13.590;2023-05-10T04:05:38;3.47;;;2.50;;
15261;SDS011;7733;51.554;13.590;2023-05-10T04:08:04;2.40;;;2.30;;
15261;SDS011;7733;51.554;13.590;2023-05-10T04:10:30;2.77;;;2.67;;
15261;SDS011;7733;51.554;13.590;2023-05-10T04:12:56;2.60;;;2.40;;
15261;SDS011;7733;51.554;13.590;2023-05-10T04:15:22;2.80;;;2.60;;
15261;SDS011;7733;51.554;13.590;2023-05-10T04:17:48;3.37;;;2.70;;
15261;SDS011;7733;51.554;13.590;2023-05-10T04:20:15;2.30;;;2.20;;
15261;SDS011;7733;51.554;13.590;2023-05-10T04:22:41;2.73;;;2.63;;
15261;SDS011;7733;51.554;13.590;2023-05-10T04:25:07;2.77;;;2.57;;
15261;SDS011;7733;51.554;13.590;2023-05-10T04:27:33;3.47;;;2.63;;
15261;SDS011;7733;51.554;13.590;2023-05-10T04:29:59;2.90;;;2.33;;
15261;SDS011;7733;51.554;13.590;2023-05-10T04:32:25;2.50;;;2.40;;
15261;SDS011;7733;51.554;13.590;2023-05-10T04:34:50;2.47;;;2.30;;
15261;SDS011;7733;51.554;13.590;2023-05-10T04:37:16;2.40;;;2.20;;
15261;SDS011;7733;51.554;13.590;2023-05-10T04:39:43;2.40;;;2.20;;
15261;SDS011;7733;51.554;13.590;2023-05-10T04:42:09;3.00;;;2.23;;
15261;SDS011;7733;51.554;13.590;2023-05-10T04:44:35;2.20;;;2.10;;
15261;SDS011;7733;51.554;13.590;2023-05-10T04:47:01;2.00;;;1.90;;
15261;SDS011;7733;51.554;13.590;2023-05-10T04:49:28;3.00;;;2.20;;
15261;SDS011;7733;51.554;13.590;2023-05-10T04:51:54;2.50;;;2.30;;
15261;SDS011;7733;51.554;13.590;2023-05-10T04:54:20;2.23;;;2.07;;
15261;SDS011;7733;51.554;13.590;2023-05-10T04:56:46;2.40;;;2.27;;
15261;SDS011;7733;51.554;13.590;2023-05-10T04:59:12;2.53;;;2.20;;
15261;SDS011;7733;51.554;13.590;2023-05-10T05:01:38;2.03;;;1.93;;
15261;SDS011;7733;51.554;13.590;2023-05-10T05:04:04;2.10;;;2.00;;
15261;SDS011;7733;51.554;13.590;2023-05-10T05:06:30;2.47;;;2.37;;
15261;SDS011;7733;51.554;13.590;2023-05-10T05:08:56;2.23;;;2.07;;
15261;SDS011;7733;51.554;13.590;2023-05-10T05:11:21;4.20;;;2.00;;
15261;SDS011;7733;51.554;13.590;2023-05-10T05:13:47;2.40;;;2.20;;
15261;SDS011;7733;51.554;13.590;2023-05-10T05:16:13;2.80;;;2.67;;
15261;SDS011;7733;51.554;13.590;2023-05-10T05:18:38;2.27;;;1.90;;
15261;SDS011;7733;51.554;13.590;2023-05-10T05:21:14;2.23;;;2.00;;
15261;SDS011;7733;51.554;13.590;2023-05-10T05:23:44;1.77;;;1.67;;
15261;SDS011;7733;51.554;13.590;2023-05-10T05:26:10;2.00;;;1.80;;
15261;SDS011;7733;51.554;13.590;2023-05-10T05:28:36;2.00;;;1.90;;
15261;SDS011;7733;51.554;13.590;2023-05-10T05:31:05;2.27;;;2.03;;
15261;SDS011;7733;51.554;13.590;2023-05-10T05:33:32;2.13;;;2.03;;
15261;SDS011;7733;51.554;13.590;2023-05-10T05:36:02;1.90;;;1.90;;
15261;SDS011;7733;51.554;13.590;2023-05-10T05:38:30;2.03;;;1.80;;
15261;SDS011;7733;51.554;13.590;2023-05-10T05:40:56;2.10;;;2.00;;
15261;SDS011;7733;51.554;13.590;2023-05-10T05:43:22;5.80;;;1.97;;
15261;SDS011;7733;51.554;13.590;2023-05-10T05:45:48;2.07;;;1.97;;
15261;SDS011;7733;51.554;13.590;2023-05-10T05:48:14;2.30;;;1.70;;
15261;SDS011;7733;51.554;13.590;2023-05-10T05:50:40;2.00;;;1.90;;
15261;SDS011;7733;51.554;13.590;2023-05-10T05:53:05;2.17;;;1.77;;
15261;SDS011;7733;51.554;13.590;2023-05-10T05:55:31;2.10;;;1.87;;
15261;SDS011;7733;51.554;13.590;2023-05-10T05:57:57;3.20;;;1.70;;
15261;SDS011;7733;51.554;13.590;2023-05-10T06:00:23;2.63;;;1.67;;
15261;SDS011;7733;51.554;13.590;2023-05-10T06:02:49;1.70;;;1.60;;
15261;SDS011;7733;51.554;13.590;2023-05-10T06:05:15;5.70;;;2.07;;
15261;SDS011;7733;51.554;13.590;2023-05-10T06:07:40;1.77;;;1.67;;
15261;SDS011;7733;51.554;13.590;2023-05-10T06:10:09;1.63;;;1.53;;
15261;SDS011;7733;51.554;13.590;2023-05-10T06:12:35;1.80;;;1.70;;
15261;SDS011;7733;51.554;13.590;2023-05-10T06:15:01;1.50;;;1.50;;
15261;SDS011;7733;51.554;13.590;2023-05-10T06:17:28;1.63;;;1.63;;
15261;SDS011;7733;51.554;13.590;2023-05-10T06:19:54;2.60;;;1.90;;
15261;SDS011;7733;51.554;13.590;2023-05-10T06:22:20;1.83;;;1.73;;
15261;SDS011;7733;51.554;13.590;2023-05-10T06:24:49;1.90;;;1.80;;
15261;SDS011;7733;51.554;13.590;2023-05-10T06:27:15;1.97;;;1.80;;
15261;SDS011;7733;51.554;13.590;2023-05-10T06:29:41;2.00;;;1.77;;
15261;SDS011;7733;51.554;13.590;2023-05-10T06:32:06;1.77;;;1.67;;
15261;SDS011;7733;51.554;13.590;2023-05-10T06:34:32;2.00;;;1.90;;
15261;SDS011;7733;51.554;13.590;2023-05-10T06:36:58;2.33;;;1.70;;
15261;SDS011;7733;51.554;13.590;2023-05-10T06:39:24;3.17;;;1.80;;
15261;SDS011;7733;51.554;13.590;2023-05-10T06:41:50;2.70;;;1.80;;
15261;SDS011;7733;51.554;13.590;2023-05-10T06:44:15;7.10;;;1.90;;
15261;SDS011;7733;51.554;13.590;2023-05-10T06:46:41;4.17;;;1.77;;
15261;SDS011;7733;51.554;13.590;2023-05-10T06:49:07;1.83;;;1.80;;
15261;SDS011;7733;51.554;13.590;2023-05-10T06:51:33;2.40;;;1.80;;
15261;SDS011;7733;51.554;13.590;2023-05-10T06:53:59;2.30;;;1.90;;
15261;SDS011;7733;51.554;13.590;2023-05-10T06:56:25;1.90;;;1.80;;
15261;SDS011;7733;51.554;13.590;2023-05-10T06:58:51;3.33;;;2.00;;
15261;SDS011;7733;51.554;13.590;2023-05-10T07:01:16;2.00;;;1.90;;
15261;SDS011;7733;51.554;13.590;2023-05-10T07:03:42;2.43;;;1.80;;
15261;SDS011;7733;51.554;13.590;2023-05-10T07:06:08;1.87;;;1.77;;
15261;SDS011;7733;51.554;13.590;2023-05-10T07:08:34;1.53;;;1.53;;
15261;SDS011;7733;51.554;13.590;2023-05-10T07:11:00;2.73;;;2.00;;
15261;SDS011;7733;51.554;13.590;2023-05-10T07:13:28;2.83;;;2.20;;
15261;SDS011;7733;51.554;13.590;2023-05-10T07:15:58;6.23;;;1.73;;
15261;SDS011;7733;51.554;13.590;2023-05-10T07:18:25;8.73;;;3.00;;
15261;SDS011;7733;51.554;13.590;2023-05-10T07:20:51;2.60;;;1.97;;
15261;SDS011;7733;51.554;13.590;2023-05-10T07:23:17;8.37;;;2.87;;
15261;SDS011;7733;51.554;13.590;2023-05-10T07:25:47;4.60;;;1.97;;
15261;SDS011;7733;51.554;13.590;2023-05-10T07:28:14;1.87;;;1.70;;
15261;SDS011;7733;51.554;13.590;2023-05-10T07:30:41;2.50;;;2.00;;
15261;SDS011;7733;51.554;13.590;2023-05-10T07:33:08;3.37;;;2.00;;
15261;SDS011;7733;51.554;13.590;2023-05-10T07:35:35;3.00;;;1.90;;
15261;SDS011;7733;51.554;13.590;2023-05-10T07:38:01;2.10;;;2.00;;
15261;SDS011;7733;51.554;13.590;2023-05-10T07:40:27;2.70;;;2.13;;
15261;SDS011;7733;51.554;13.590;2023-05-10T07:42:54;2.53;;;2.00;;
15261;SDS011;7733;51.554;13.590;2023-05-10T07:45:20;5.03;;;2.23;;
15261;SDS011;7733;51.554;13.590;2023-05-10T07:47:46;2.50;;;2.00;;
15261;SDS011;7733;51.554;13.590;2023-05-10T07:50:12;4.70;;;2.23;;
15261;SDS011;7733;51.554;13.590;2023-05-10T07:52:38;3.77;;;2.00;;
15261;SDS011;7733;51.554;13.590;2023-05-10T07:55:03;3.73;;;1.87;;
15261;SDS011;7733;51.554;13.590;2023-05-10T07:57:30;2.00;;;1.83;;
15261;SDS011;7733;51.554;13.590;2023-05-10T07:59:56;3.43;;;2.17;;
15261;SDS011;7733;51.554;13.590;2023-05-10T08:02:21;1.67;;;1.57;;
15261;SDS011;7733;51.554;13.590;2023-05-10T08:04:47;1.87;;;1.70;;
15261;SDS011;7733;51.554;13.590;2023-05-10T08:07:13;2.63;;;2.00;;
15261;SDS011;7733;51.554;13.590;2023-05-10T08:09:39;2.37;;;2.20;;
15261;SDS011;7733;51.554;13.590;2023-05-10T08:12:04;6.87;;;2.50;;
15261;SDS011;7733;51.554;13.590;2023-05-10T08:14:31;1.70;;;1.60;;
15261;SDS011;7733;51.554;13.590;2023-05-10T08:16:56;2.10;;;1.90;;
15261;SDS011;7733;51.554;13.590;2023-05-10T08:19:22;2.73;;;2.00;;
15261;SDS011;7733;51.554;13.590;2023-05-10T08:21:48;1.83;;;1.60;;
15261;SDS011;7733;51.554;13.590;2023-05-10T08:24:14;2.93;;;2.10;;
15261;SDS011;7733;51.554;13.590;2023-05-10T08:26:40;1.83;;;1.70;;
15261;SDS011;7733;51.554;13.590;2023-05-10T08:29:06;2.97;;;2.63;;
15261;SDS011;7733;51.554;13.590;2023-05-10T08:31:31;1.87;;;1.77;;
15261;SDS011;7733;51.554;13.590;2023-05-10T08:33:57;1.90;;;1.80;;
15261;SDS011;7733;51.554;13.590;2023-05-10T08:36:23;1.97;;;1.80;;
15261;SDS011;7733;51.554;13.590;2023-05-10T08:38:52;1.80;;;1.70;;
15261;SDS011;7733;51.554;13.590;2023-05-10T08:41:19;5.53;;;1.80;;
15261;SDS011;7733;51.554;13.590;2023-05-10T08:43:46;1.90;;;1.80;;
15261;SDS011;7733;51.554;13.590;2023-05-10T08:46:15;2.73;;;2.00;;
15261;SDS011;7733;51.554;13.590;2023-05-10T08:48:43;1.60;;;1.60;;
15261;SDS011;7733;51.554;13.590;2023-05-10T08:51:15;1.70;;;1.60;;
15261;SDS011;7733;51.554;13.590;2023-05-10T08:53:44;2.23;;;1.80;;
15261;SDS011;7733;51.554;13.590;2023-05-10T08:56:11;8.37;;;1.73;;
15261;SDS011;7733;51.554;13.590;2023-05-10T08:58:37;1.57;;;1.53;;
15261;SDS011;7733;51.554;13.590;2023-05-10T09:01:03;2.73;;;1.93;;
15261;SDS011;7733;51.554;13.590;2023-05-10T09:03:30;1.83;;;1.60;;
15261;SDS011;7733;51.554;13.590;2023-05-10T09:05:57;1.77;;;1.67;;
15261;SDS011;7733;51.554;13.590;2023-05-10T09:08:23;3.43;;;1.63;;
15261;SDS011;7733;51.554;13.590;2023-05-10T09:10:51;2.03;;;1.87;;
15261;SDS011;7733;51.554;13.590;2023-05-10T09:15:45;2.23;;;2.00;;
15261;SDS011;7733;51.554;13.590;2023-05-10T09:18:12;3.93;;;2.00;;
15261;SDS011;7733;51.554;13.590;2023-05-10T09:20:38;1.83;;;1.73;;
15261;SDS011;7733;51.554;13.590;2023-05-10T09:23:05;1.57;;;1.50;;
15261;SDS011;7733;51.554;13.590;2023-05-10T09:25:31;1.50;;;1.50;;
15261;SDS011;7733;51.554;13.590;2023-05-10T09:28:00;1.80;;;1.70;;
15261;SDS011;7733;51.554;13.590;2023-05-10T09:30:26;2.10;;;1.90;;
15261;SDS011;7733;51.554;13.590;2023-05-10T09:32:56;2.30;;;1.90;;
15261;SDS011;7733;51.554;13.590;2023-05-10T09:35:25;2.00;;;1.90;;
15261;SDS011;7733;51.554;13.590;2023-05-10T09:37:56;1.47;;;1.47;;
15261;SDS011;7733;51.554;13.590;2023-05-10T09:40:26;1.90;;;1.80;;
15261;SDS011;7733;51.554;13.590;2023-05-10T09:42:57;1.97;;;1.80;;
15261;SDS011;7733;51.554;13.590;2023-05-10T09:45:26;1.80;;;1.70;;
15261;SDS011;7733;51.554;13.590;2023-05-10T09:47:54;3.83;;;2.30;;
15261;SDS011;7733;51.554;13.590;2023-05-10T09:50:21;1.87;;;1.77;;
15261;SDS011;7733;51.554;13.590;2023-05-10T09:52:58;2.30;;;1.97;;
15261;SDS011;7733;51.554;13.590;2023-05-10T09:58:09;1.87;;;1.77;;
15261;SDS011;7733;51.554;13.590;2023-05-10T10:00:44;1.97;;;1.87;;
15261;SDS011;7733;51.554;13.590;2023-05-10T10:03:21;8.83;;;2.30;;
15261;SDS011;7733;51.554;13.590;2023-05-10T10:05:48;2.20;;;2.10;;
15261;SDS011;7733;51.554;13.590;2023-05-10T10:08:14;1.93;;;1.70;;
15261;SDS011;7733;51.554;13.590;2023-05-10T10:10:41;2.33;;;1.80;;
15261;SDS011;7733;51.554;13.590;2023-05-10T10:13:10;2.53;;;1.97;;
15261;SDS011;7733;51.554;13.590;2023-05-10T10:15:36;1.60;;;1.60;;
15261;SDS011;7733;51.554;13.590;2023-05-10T10:18:02;2.20;;;2.00;;
15261;SDS011;7733;51.554;13.590;2023-05-10T10:20:30;2.07;;;1.93;;
15261;SDS011;7733;51.554;13.590;2023-05-10T10:22:56;2.63;;;2.00;;
15261;SDS011;7733;51.554;13.590;2023-05-10T10:25:22;2.20;;;2.10;;
15261;SDS011;7733;51.554;13.590;2023-05-10T10:30:28;1.97;;;1.80;;
15261;SDS011;7733;51.554;13.590;2023-05-10T10:36:05;2.33;;;1.70;;
15261;SDS011;7733;51.554;13.590;2023-05-10T10:52:21;2.13;;;2.00;;
15261;SDS011;7733;51.554;13.590;2023-05-10T10:55:06;1.93;;;1.87;;
15261;SDS011;7733;51.554;13.590;2023-05-10T10:57:45;1.93;;;1.83;;
15261;SDS011;7733;51.554;13.590;2023-05-10T11:03:06;2.13;;;1.83;;
15261;SDS011;7733;51.554;13.590;2023-05-10T11:05:49;2.00;;;1.80;;
15261;SDS011;7733;51.554;13.590;2023-05-10T11:08:30;2.53;;;1.90;;
15261;SDS011;7733;51.554;13.590;2023-05-10T11:13:36;2.30;;;1.80;;
15261;SDS011;7733;51.554;13.590;2023-05-10T11:16:21;2.90;;;1.87;;
15261;SDS011;7733;51.554;13.590;2023-05-10T11:18:57;2.70;;;2.53;;
15261;SDS011;7733;51.554;13.590;2023-05-10T11:21:33;2.47;;;2.20;;
15261;SDS011;7733;51.554;13.590;2023-05-10T11:24:12;1.77;;;1.70;;
15261;SDS011;7733;51.554;13.590;2023-05-10T11:26:41;1.83;;;1.77;;
15261;SDS011;7733;51.554;13.590;2023-05-10T11:29:07;2.03;;;1.93;;
15261;SDS011;7733;51.554;13.590;2023-05-10T11:31:34;1.93;;;1.83;;
15261;SDS011;7733;51.554;13.590;2023-05-10T11:34:00;2.30;;;1.87;;
15261;SDS011;7733;51.554;13.590;2023-05-10T11:36:27;2.00;;;1.90;;
15261;SDS011;7733;51.554;13.590;2023-05-10T11:39:00;2.10;;;1.90;;
15261;SDS011;7733;51.554;13.590;2023-05-10T11:41:28;4.17;;;1.97;;
15261;SDS011;7733;51.554;13.590;2023-05-10T11:43:56;2.10;;;2.00;;
15261;SDS011;7733;51.554;13.590;2023-05-10T11:46:24;1.83;;;1.83;;
15261;SDS011;7733;51.554;13.590;2023-05-10T11:49:01;1.57;;;1.50;;
15261;SDS011;7733;51.554;13.590;2023-05-10T11:51:29;2.00;;;1.90;;
15261;SDS011;7733;51.554;13.590;2023-05-10T11:54:00;1.83;;;1.80;;
15261;SDS011;7733;51.554;13.590;2023-05-10T11:56:31;2.13;;;1.90;;
15261;SDS011;7733;51.554;13.590;2023-05-10T11:58:58;1.93;;;1.80;;
15261;SDS011;7733;51.554;13.590;2023-05-10T12:01:27;2.97;;;2.00;;
15261;SDS011;7733;51.554;13.590;2023-05-10T12:03:54;2.20;;;2.00;;
15261;SDS011;7733;51.554;13.590;2023-05-10T12:06:26;2.57;;;1.90;;
15261;SDS011;7733;51.554;13.590;2023-05-10T12:08:54;2.80;;;2.50;;
15261;SDS011;7733;51.554;13.590;2023-05-10T12:11:20;2.07;;;2.03;;
15261;SDS011;7733;51.554;13.590;2023-05-10T12:13:51;2.10;;;2.00;;
15261;SDS011;7733;51.554;13.590;2023-05-10T12:16:19;2.33;;;2.20;;
15261;SDS011;7733;51.554;13.590;2023-05-10T12:18:53;2.03;;;1.93;;
15261;SDS011;7733;51.554;13.590;2023-05-10T12:21:23;2.10;;;1.90;;
15261;SDS011;7733;51.554;13.590;2023-05-10T12:23:53;2.00;;;1.90;;
15261;SDS011;7733;51.554;13.590;2023-05-10T12:26:25;3.67;;;2.07;;
15261;SDS011;7733;51.554;13.590;2023-05-10T12:28:53;3.67;;;2.30;;
15261;SDS011;7733;51.554;13.590;2023-05-10T12:31:20;2.37;;;2.20;;
15261;SDS011;7733;51.554;13.590;2023-05-10T12:33:46;2.67;;;2.17;;
15261;SDS011;7733;51.554;13.590;2023-05-10T12:36:14;3.57;;;2.00;;
15261;SDS011;7733;51.554;13.590;2023-05-10T12:38:42;2.30;;;2.10;;
15261;SDS011;7733;51.554;13.590;2023-05-10T12:41:16;2.17;;;2.07;;
15261;SDS011;7733;51.554;13.590;2023-05-10T12:43:43;3.23;;;2.17;;
15261;SDS011;7733;51.554;13.590;2023-05-10T12:46:11;2.23;;;2.13;;
15261;SDS011;7733;51.554;13.590;2023-05-10T12:48:39;2.20;;;2.10;;
15261;SDS011;7733;51.554;13.590;2023-05-10T12:51:07;1.93;;;1.90;;
15261;SDS011;7733;51.554;13.590;2023-05-10T12:53:34;2.27;;;2.17;;
15261;SDS011;7733;51.554;13.590;2023-05-10T12:56:01;2.67;;;2.57;;
15261;SDS011;7733;51.554;13.590;2023-05-10T12:58:27;2.20;;;2.10;;
15261;SDS011;7733;51.554;13.590;2023-05-10T13:00:53;2.03;;;1.93;;
15261;SDS011;7733;51.554;13.590;2023-05-10T13:03:21;2.00;;;1.90;;
15261;SDS011;7733;51.554;13.590;2023-05-10T13:05:47;4.27;;;2.00;;
15261;SDS011;7733;51.554;13.590;2023-05-10T13:08:13;2.53;;;1.83;;
15261;SDS011;7733;51.554;13.590;2023-05-10T13:10:39;2.73;;;1.90;;
15261;SDS011;7733;51.554;13.590;2023-05-10T13:13:05;3.10;;;2.00;;
15261;SDS011;7733;51.554;13.590;2023-05-10T13:15:32;3.80;;;1.90;;
15261;SDS011;7733;51.554;13.590;2023-05-10T13:17:58;3.50;;;2.13;;
15261;SDS011;7733;51.554;13.590;2023-05-10T13:20:24;2.10;;;1.93;;
15261;SDS011;7733;51.554;13.590;2023-05-10T13:22:50;2.70;;;2.50;;
15261;SDS011;7733;51.554;13.590;2023-05-10T13:25:16;3.10;;;2.53;;
15261;SDS011;7733;51.554;13.590;2023-05-10T13:27:42;2.80;;;2.63;;
15261;SDS011;7733;51.554;13.590;2023-05-10T13:30:08;4.00;;;3.67;;
15261;SDS011;7733;51.554;13.590;2023-05-10T13:32:34;4.73;;;4.37;;
15261;SDS011;7733;51.554;13.590;2023-05-10T13:35:00;2.90;;;2.80;;
15261;SDS011;7733;51.554;13.590;2023-05-10T13:37:28;2.90;;;2.80;;
15261;SDS011;7733;51.554;13.590;2023-05-10T13:39:55;3.20;;;2.90;;
15261;SDS011;7733;51.554;13.590;2023-05-10T13:42:21;3.00;;;2.80;;
15261;SDS011;7733;51.554;13.590;2023-05-10T13:44:48;2.97;;;2.77;;
15261;SDS011;7733;51.554;13.590;2023-05-10T13:47:17;2.80;;;2.70;;
15261;SDS011;7733;51.554;13.590;2023-05-10T13:49:43;3.03;;;2.83;;
15261;SDS011;7733;51.554;13.590;2023-05-10T13:52:09;3.07;;;2.87;;
15261;SDS011;7733;51.554;13.590;2023-05-10T13:54:38;4.47;;;3.03;;
15261;SDS011;7733;51.554;13.590;2023-05-10T13:57:04;3.10;;;2.70;;
15261;SDS011;7733;51.554;13.590;2023-05-10T13:59:30;3.50;;;3.30;;
15261;SDS011;7733;51.554;13.590;2023-05-10T14:01:56;2.90;;;2.80;;
15261;SDS011;7733;51.554;13.590;2023-05-10T14:04:29;2.80;;;2.70;;
15261;SDS011;7733;51.554;13.590;2023-05-10T14:06:55;4.17;;;3.00;;
15261;SDS011;7733;51.554;13.590;2023-05-10T14:09:21;3.00;;;2.90;;
15261;SDS011;7733;51.554;13.590;2023-05-10T14:11:47;3.20;;;3.00;;
15261;SDS011;7733;51.554;13.590;2023-05-10T14:14:12;2.80;;;2.70;;
15261;SDS011;7733;51.554;13.590;2023-05-10T14:16:41;4.67;;;4.47;;
15261;SDS011;7733;51.554;13.590;2023-05-10T14:19:09;3.03;;;2.73;;
15261;SDS011;7733;51.554;13.590;2023-05-10T14:21:36;2.80;;;2.70;;
15261;SDS011;7733;51.554;13.590;2023-05-10T14:24:02;2.83;;;2.73;;
15261;SDS011;7733;51.554;13.590;2023-05-10T14:26:27;2.90;;;2.70;;
15261;SDS011;7733;51.554;13.590;2023-05-10T14:28:53;3.27;;;2.90;;
15261;SDS011;7733;51.554;13.590;2023-05-10T14:31:19;2.53;;;2.43;;
15261;SDS011;7733;51.554;13.590;2023-05-10T14:33:50;3.93;;;2.97;;
15261;SDS011;7733;51.554;13.590;2023-05-10T14:36:17;3.00;;;2.80;;
15261;SDS011;7733;51.554;13.590;2023-05-10T14:38:43;3.43;;;3.13;;
15261;SDS011;7733;51.554;13.590;2023-05-10T14:41:09;2.83;;;2.73;;
15261;SDS011;7733;51.554;13.590;2023-05-10T14:43:39;3.23;;;3.03;;
15261;SDS011;7733;51.554;13.590;2023-05-10T14:46:04;3.33;;;3.03;;
15261;SDS011;7733;51.554;13.590;2023-05-10T14:48:30;3.03;;;2.83;;
15261;SDS011;7733;51.554;13.590;2023-05-10T14:50:56;3.10;;;2.87;;
15261;SDS011;7733;51.554;13.590;2023-05-10T14:53:22;2.80;;;2.70;;
15261;SDS011;7733;51.554;13.590;2023-05-10T14:55:47;2.87;;;2.77;;
15261;SDS011;7733;51.554;13.590;2023-05-10T14:58:13;3.10;;;3.00;;
15261;SDS011;7733;51.554;13.590;2023-05-10T15:00:40;4.13;;;2.90;;
15261;SDS011;7733;51.554;13.590;2023-05-10T15:03:06;3.33;;;3.13;;
15261;SDS011;7733;51.554;13.590;2023-05-10T15:05:31;3.10;;;2.90;;
15261;SDS011;7733;51.554;13.590;2023-05-10T15:07:57;3.30;;;3.10;;
15261;SDS011;7733;51.554;13.590;2023-05-10T15:10:23;5.07;;;4.70;;
15261;SDS011;7733;51.554;13.590;2023-05-10T15:12:49;3.60;;;3.40;;
15261;SDS011;7733;51.554;13.590;2023-05-10T15:15:15;3.80;;;2.50;;
15261;SDS011;7733;51.554;13.590;2023-05-10T15:17:41;3.03;;;2.83;;
15261;SDS011;7733;51.554;13.590;2023-05-10T15:20:07;5.67;;;2.90;;
15261;SDS011;7733;51.554;13.590;2023-05-10T15:22:33;3.30;;;3.10;;
15261;SDS011;7733;51.554;13.590;2023-05-10T15:24:58;2.97;;;2.70;;
15261;SDS011;7733;51.554;13.590;2023-05-10T15:27:24;2.80;;;2.53;;
15261;SDS011;7733;51.554;13.590;2023-05-10T15:29:51;2.87;;;2.67;;
15261;SDS011;7733;51.554;13.590;2023-05-10T15:32:17;3.07;;;2.67;;
15261;SDS011;7733;51.554;13.590;2023-05-10T15:34:43;3.00;;;2.80;;
15261;SDS011;7733;51.554;13.590;2023-05-10T15:37:09;5.90;;;3.30;;
15261;SDS011;7733;51.554;13.590;2023-05-10T15:39:34;2.80;;;2.70;;